sensor_id;sensor_type;location;lat;lon;timestamp;pressure;altitude;pressure_sealevel;temperature;humidity
26823;BME280;14852;51.910;8.878;2023-03-26T00:01:17;98729.44;;;11.01;61.72
26823;BME280;14852;51.910;8.878;2023-03-26T00:03:44;98732.03;;;11.01;61.69
26823;BME280;14852;51.910;8.878;2023-03-26T00:06:15;98744.09;;;11.02;61.50
26823;BME280;14852;51.910;8.878;2023-03-26T00:08:43;98744.94;;;11.02;61.74
26823;BME280;14852;51.910;8.878;2023-03-26T00:11:13;98738.91;;;11.02;61.85
26823;BME280;14852;51.910;8.878;2023-03-26T00:13:39;98744.94;;;11.02;61.51
26823;BME280;14852;51.910;8.878;2023-03-26T00:16:09;98748.25;;;11.04;61.49
26823;BME280;14852;51.910;8.878;2023-03-26T00:18:36;98752.53;;;11.05;61.37
26823;BME280;14852;51.910;8.878;2023-03-26T00:21:11;98752.53;;;11.05;61.41
26823;BME280;14852;51.910;8.878;2023-03-26T00:23:37;98749.09;;;11.05;61.46
26823;BME280;14852;51.910;8.878;2023-03-26T00:26:04;98753.47;;;11.04;61.88
26823;BME280;14852;51.910;8.878;2023-03-26T00:28:40;98757.63;;;11.07;61.55
26823;BME280;14852;51.910;8.878;2023-03-26T00:31:13;98751.59;;;11.06;61.33
26823;BME280;14852;51.910;8.878;2023-03-26T00:33:40;98757.72;;;11.05;61.40
26823;BME280;14852;51.910;8.878;2023-03-26T00:36:11;98760.44;;;11.04;61.60
26823;BME280;14852;51.910;8.878;2023-03-26T00:38:40;98761.16;;;11.06;61.43
26823;BME280;14852;51.910;8.878;2023-03-26T00:41:08;98761.16;;;11.06;61.63
26823;BME280;14852;51.910;8.878;2023-03-26T00:43:44;98765.53;;;11.05;61.41
26823;BME280;14852;51.910;8.878;2023-03-26T00:46:13;98773.53;;;11.02;61.56
26823;BME280;14852;51.910;8.878;2023-03-26T00:48:40;98766.78;;;11.00;61.56
26823;BME280;14852;51.910;8.878;2023-03-26T00:51:14;98764.38;;;10.97;61.90
26823;BME280;14852;51.910;8.878;2023-03-26T00:53:43;98772.41;;;10.94;61.66
26823;BME280;14852;51.910;8.878;2023-03-26T00:56:10;98767.31;;;10.92;61.61
26823;BME280;14852;51.910;8.878;2023-03-26T00:58:37;98766.47;;;10.92;61.87
26823;BME280;14852;51.910;8.878;2023-03-26T01:01:08;98781.97;;;10.93;61.92
26823;BME280;14852;51.910;8.878;2023-03-26T01:03:37;98773.44;;;10.91;62.03
26823;BME280;14852;51.910;8.878;2023-03-26T01:08:50;98771.69;;;10.92;61.99
26823;BME280;14852;51.910;8.878;2023-03-26T01:11:23;98762.22;;;10.91;61.82
26823;BME280;14852;51.910;8.878;2023-03-26T01:14:20;98765.53;;;10.93;61.93
26823;BME280;14852;51.910;8.878;2023-03-26T01:16:53;98773.44;;;10.91;62.12
26823;BME280;14852;51.910;8.878;2023-03-26T01:22:17;98779.28;;;10.95;61.87
26823;BME280;14852;51.910;8.878;2023-03-26T01:24:44;98779.38;;;10.93;62.07
26823;BME280;14852;51.910;8.878;2023-03-26T01:27:32;98773.94;;;10.96;61.98
26823;BME280;14852;51.910;8.878;2023-03-26T01:30:27;98771.25;;;10.98;61.91
26823;BME280;14852;51.910;8.878;2023-03-26T01:33:24;98773.84;;;10.98;62.00
26823;BME280;14852;51.910;8.878;2023-03-26T01:36:19;98778.09;;;10.99;62.02
26823;BME280;14852;51.910;8.878;2023-03-26T01:39:00;98768.63;;;10.98;61.96
26823;BME280;14852;51.910;8.878;2023-03-26T01:47:00;98765.94;;;10.99;61.80
26823;BME280;14852;51.910;8.878;2023-03-26T01:49:28;98772.06;;;10.98;62.14
26823;BME280;14852;51.910;8.878;2023-03-26T01:51:55;98764.28;;;10.98;61.86
26823;BME280;14852;51.910;8.878;2023-03-26T01:54:28;98752.84;;;11.01;61.98
26823;BME280;14852;51.910;8.878;2023-03-26T02:00:27;98747.94;;;10.96;61.92
26823;BME280;14852;51.910;8.878;2023-03-26T02:08:32;98748.69;;;10.85;62.44
26823;BME280;14852;51.910;8.878;2023-03-26T02:11:09;98745.25;;;10.85;62.51
26823;BME280;14852;51.910;8.878;2023-03-26T02:13:38;98738.53;;;10.82;62.45
26823;BME280;14852;51.910;8.878;2023-03-26T02:16:08;98742.81;;;10.83;62.39
26823;BME280;14852;51.910;8.878;2023-03-26T02:18:34;98739.38;;;10.83;62.19
26823;BME280;14852;51.910;8.878;2023-03-26T02:21:23;98737.47;;;10.85;62.41
26823;BME280;14852;51.910;8.878;2023-03-26T02:23:56;98734.78;;;10.86;62.43
26823;BME280;14852;51.910;8.878;2023-03-26T02:26:30;98727.69;;;10.88;62.44
26823;BME280;14852;51.910;8.878;2023-03-26T02:29:04;98719.91;;;10.88;62.25
26823;BME280;14852;51.910;8.878;2023-03-26T02:31:31;98719.91;;;10.88;62.13
26823;BME280;14852;51.910;8.878;2023-03-26T02:33:57;98718.97;;;10.89;62.16
26823;BME280;14852;51.910;8.878;2023-03-26T02:36:25;98712.22;;;10.87;62.40
26823;BME280;14852;51.910;8.878;2023-03-26T02:38:55;98709.72;;;10.85;62.32
26823;BME280;14852;51.910;8.878;2023-03-26T02:41:22;98711.38;;;10.86;62.49
26823;BME280;14852;51.910;8.878;2023-03-26T02:44:08;98703.47;;;10.88;62.44
26823;BME280;14852;51.910;8.878;2023-03-26T02:46:55;98702.44;;;10.91;62.44
26823;BME280;14852;51.910;8.878;2023-03-26T02:49:39;98700.78;;;10.89;62.48
26823;BME280;14852;51.910;8.878;2023-03-26T02:52:05;98697.25;;;10.91;62.26
26823;BME280;14852;51.910;8.878;2023-03-26T02:54:32;98706.81;;;10.90;62.29
26823;BME280;14852;51.910;8.878;2023-03-26T02:57:11;98704.94;;;10.92;62.02
26823;BME280;14852;51.910;8.878;2023-03-26T02:59:42;98699.63;;;10.94;62.44
26823;BME280;14852;51.910;8.878;2023-03-26T03:02:49;98696.94;;;10.95;62.12
26823;BME280;14852;51.910;8.878;2023-03-26T03:05:27;98692.66;;;10.94;62.32
26823;BME280;14852;51.910;8.878;2023-03-26T03:08:11;98693.59;;;10.93;62.22
26823;BME280;14852;51.910;8.878;2023-03-26T03:10:56;98693.38;;;10.96;61.97
26823;BME280;14852;51.910;8.878;2023-03-26T03:13:34;98689.13;;;10.95;62.33
26823;BME280;14852;51.910;8.878;2023-03-26T03:16:00;98696.22;;;10.93;62.38
26823;BME280;14852;51.910;8.878;2023-03-26T03:18:25;98694.34;;;10.95;62.30
26823;BME280;14852;51.910;8.878;2023-03-26T03:20:51;98692.66;;;10.94;62.23
26823;BME280;14852;51.910;8.878;2023-03-26T03:23:18;98687.47;;;10.94;62.29
26823;BME280;14852;51.910;8.878;2023-03-26T03:25:45;98692.56;;;10.96;62.14
26823;BME280;14852;51.910;8.878;2023-03-26T03:28:11;98689.72;;;10.99;62.54
26823;BME280;14852;51.910;8.878;2023-03-26T03:30:37;98694.81;;;11.00;62.15
26823;BME280;14852;51.910;8.878;2023-03-26T03:33:22;98682.56;;;11.02;62.47
26823;BME280;14852;51.910;8.878;2023-03-26T03:35:49;98677.25;;;11.04;62.18
26823;BME280;14852;51.910;8.878;2023-03-26T03:38:16;98680.56;;;11.06;62.23
26823;BME280;14852;51.910;8.878;2023-03-26T03:40:46;98682.94;;;11.09;62.21
26823;BME280;14852;51.910;8.878;2023-03-26T03:43:12;98682.81;;;11.10;62.11
26823;BME280;14852;51.910;8.878;2023-03-26T03:45:49;98686.97;;;11.13;62.02
26823;BME280;14852;51.910;8.878;2023-03-26T03:48:34;98686.78;;;11.16;62.03
26823;BME280;14852;51.910;8.878;2023-03-26T03:51:04;98683.22;;;11.17;61.79
26823;BME280;14852;51.910;8.878;2023-03-26T03:53:44;98689.38;;;11.16;61.88
26823;BME280;14852;51.910;8.878;2023-03-26T03:56:13;98685.09;;;11.15;62.42
26823;BME280;14852;51.910;8.878;2023-03-26T03:59:04;98686.66;;;11.17;61.92
26823;BME280;14852;51.910;8.878;2023-03-26T04:01:33;98679.69;;;11.18;62.00
26823;BME280;14852;51.910;8.878;2023-03-26T04:04:06;98680.63;;;11.17;62.20
26823;BME280;14852;51.910;8.878;2023-03-26T04:06:51;98678.03;;;11.17;61.96
26823;BME280;14852;51.910;8.878;2023-03-26T04:09:17;98677.31;;;11.15;62.33
26823;BME280;14852;51.910;8.878;2023-03-26T04:11:45;98673.78;;;11.16;62.17
26823;BME280;14852;51.910;8.878;2023-03-26T04:14:22;98668.47;;;11.17;62.00
26823;BME280;14852;51.910;8.878;2023-03-26T04:16:56;98664.94;;;11.18;62.18
26823;BME280;14852;51.910;8.878;2023-03-26T04:19:22;98665.03;;;11.17;62.33
26823;BME280;14852;51.910;8.878;2023-03-26T04:21:49;98659.13;;;11.15;62.41
26823;BME280;14852;51.910;8.878;2023-03-26T04:24:18;98660.88;;;11.14;62.56
26823;BME280;14852;51.910;8.878;2023-03-26T04:27:19;98648.50;;;11.18;62.13
26823;BME280;14852;51.910;8.878;2023-03-26T04:29:49;98649.34;;;11.18;62.22
26823;BME280;14852;51.910;8.878;2023-03-26T04:32:26;98647.88;;;11.14;62.10
26823;BME280;14852;51.910;8.878;2023-03-26T04:34:56;98645.38;;;11.13;62.64
26823;BME280;14852;51.910;8.878;2023-03-26T04:37:35;98646.00;;;11.16;62.25
26823;BME280;14852;51.910;8.878;2023-03-26T04:40:20;98646.84;;;11.17;62.10
26823;BME280;14852;51.910;8.878;2023-03-26T04:43:05;98648.72;;;11.15;62.42
26823;BME280;14852;51.910;8.878;2023-03-26T04:45:54;98647.66;;;11.17;62.39
26823;BME280;14852;51.910;8.878;2023-03-26T04:48:22;98643.06;;;11.21;62.09
26823;BME280;14852;51.910;8.878;2023-03-26T04:50:48;98650.84;;;11.21;62.48
26823;BME280;14852;51.910;8.878;2023-03-26T04:53:19;98651.69;;;11.21;62.10
26823;BME280;14852;51.910;8.878;2023-03-26T04:59:29;98644.41;;;11.27;62.36
26823;BME280;14852;51.910;8.878;2023-03-26T05:02:04;98637.44;;;11.27;62.29
26823;BME280;14852;51.910;8.878;2023-03-26T05:04:37;98640.34;;;11.22;62.43
26823;BME280;14852;51.910;8.878;2023-03-26T05:07:08;98632.53;;;11.22;62.33
26823;BME280;14852;51.910;8.878;2023-03-26T05:09:43;98626.41;;;11.23;62.38
26823;BME280;14852;51.910;8.878;2023-03-26T05:12:14;98621.09;;;11.25;62.28
26823;BME280;14852;51.910;8.878;2023-03-26T05:15:02;98622.88;;;11.24;62.06
26823;BME280;14852;51.910;8.878;2023-03-26T05:17:40;98619.22;;;11.27;62.55
26823;BME280;14852;51.910;8.878;2023-03-26T05:20:18;98625.03;;;11.31;62.34
26823;BME280;14852;51.910;8.878;2023-03-26T05:22:50;98617.94;;;11.33;62.12
26823;BME280;14852;51.910;8.878;2023-03-26T05:25:24;98616.41;;;11.30;61.97
26823;BME280;14852;51.910;8.878;2023-03-26T05:27:50;98612.16;;;11.29;62.00
26823;BME280;14852;51.910;8.878;2023-03-26T05:30:20;98614.13;;;11.25;62.14
26823;BME280;14852;51.910;8.878;2023-03-26T05:32:49;98613.41;;;11.23;62.62
26823;BME280;14852;51.910;8.878;2023-03-26T05:35:19;98601.34;;;11.22;62.69
26823;BME280;14852;51.910;8.878;2023-03-26T05:37:46;98597.09;;;11.21;62.27
26823;BME280;14852;51.910;8.878;2023-03-26T05:40:13;98600.63;;;11.20;62.71
26823;BME280;14852;51.910;8.878;2023-03-26T05:42:52;98596.50;;;11.18;62.59
26823;BME280;14852;51.910;8.878;2023-03-26T05:45:27;98596.50;;;11.18;62.28
26823;BME280;14852;51.910;8.878;2023-03-26T05:47:54;98587.88;;;11.17;62.64
26823;BME280;14852;51.910;8.878;2023-03-26T05:50:23;98593.19;;;11.16;62.37
26823;BME280;14852;51.910;8.878;2023-03-26T05:52:52;98583.50;;;11.18;62.30
26823;BME280;14852;51.910;8.878;2023-03-26T05:55:45;98587.03;;;11.17;62.36
26823;BME280;14852;51.910;8.878;2023-03-26T05:58:32;98583.59;;;11.16;62.25
26823;BME280;14852;51.910;8.878;2023-03-26T06:01:17;98580.91;;;11.18;62.71
26823;BME280;14852;51.910;8.878;2023-03-26T06:04:12;98582.44;;;11.20;62.50
26823;BME280;14852;51.910;8.878;2023-03-26T06:06:46;98573.47;;;11.24;62.63
26823;BME280;14852;51.910;8.878;2023-03-26T06:09:12;98571.47;;;11.28;62.50
26823;BME280;14852;51.910;8.878;2023-03-26T06:11:39;98573.72;;;11.33;62.06
26823;BME280;14852;51.910;8.878;2023-03-26T06:14:06;98567.59;;;11.34;62.19
26823;BME280;14852;51.910;8.878;2023-03-26T06:16:37;98570.06;;;11.35;62.44
26823;BME280;14852;51.910;8.878;2023-03-26T06:19:23;98563.81;;;11.38;62.34
26823;BME280;14852;51.910;8.878;2023-03-26T06:21:59;98562.78;;;11.40;62.31
26823;BME280;14852;51.910;8.878;2023-03-26T06:24:45;98564.53;;;11.40;62.23
26823;BME280;14852;51.910;8.878;2023-03-26T06:27:39;98565.25;;;11.42;62.36
26823;BME280;14852;51.910;8.878;2023-03-26T06:30:33;98558.16;;;11.44;62.37
26823;BME280;14852;51.910;8.878;2023-03-26T06:33:05;98559.81;;;11.45;62.06
26823;BME280;14852;51.910;8.878;2023-03-26T06:35:37;98562.28;;;11.46;62.30
26823;BME280;14852;51.910;8.878;2023-03-26T06:38:04;98553.44;;;11.49;62.38
26823;BME280;14852;51.910;8.878;2023-03-26T06:40:33;98553.44;;;11.49;62.46
26823;BME280;14852;51.910;8.878;2023-03-26T06:43:34;98553.78;;;11.55;62.02
26823;BME280;14852;51.910;8.878;2023-03-26T06:46:15;98555.34;;;11.58;62.23
26823;BME280;14852;51.910;8.878;2023-03-26T06:49:13;98552.88;;;11.68;61.97
26823;BME280;14852;51.910;8.878;2023-03-26T06:51:49;98556.69;;;11.75;61.99
26823;BME280;14852;51.910;8.878;2023-03-26T06:54:18;98559.06;;;11.78;62.05
26823;BME280;14852;51.910;8.878;2023-03-26T06:56:49;98561.31;;;11.82;61.81
26823;BME280;14852;51.910;8.878;2023-03-26T06:59:35;98565.59;;;11.83;61.95
26823;BME280;14852;51.910;8.878;2023-03-26T07:02:19;98558.72;;;11.82;62.01
26823;BME280;14852;51.910;8.878;2023-03-26T07:05:04;98557.19;;;11.80;61.96
26823;BME280;14852;51.910;8.878;2023-03-26T07:07:53;98550.19;;;11.80;62.14
26823;BME280;14852;51.910;8.878;2023-03-26T07:10:37;98554.56;;;11.80;62.13
26823;BME280;14852;51.910;8.878;2023-03-26T07:13:21;98537.41;;;11.77;62.17
26823;BME280;14852;51.910;8.878;2023-03-26T07:16:06;98539.66;;;11.82;62.14
26823;BME280;14852;51.910;8.878;2023-03-26T07:19:01;98539.34;;;11.86;62.01
26823;BME280;14852;51.910;8.878;2023-03-26T07:21:33;98531.63;;;11.96;62.17
26823;BME280;14852;51.910;8.878;2023-03-26T07:24:00;98532.69;;;12.05;61.93
26823;BME280;14852;51.910;8.878;2023-03-26T07:29:58;98520.84;;;12.23;61.69
26823;BME280;14852;51.910;8.878;2023-03-26T07:36:24;98508.25;;;12.39;61.38
26823;BME280;14852;51.910;8.878;2023-03-26T07:39:37;98495.09;;;12.52;61.22
26823;BME280;14852;51.910;8.878;2023-03-26T07:42:33;98494.94;;;12.64;60.70
26823;BME280;14852;51.910;8.878;2023-03-26T07:45:38;98491.69;;;12.72;60.80
26823;BME280;14852;51.910;8.878;2023-03-26T07:48:26;98494.75;;;12.77;60.59
26823;BME280;14852;51.910;8.878;2023-03-26T07:51:10;98495.59;;;12.78;60.85
26823;BME280;14852;51.910;8.878;2023-03-26T07:53:52;98487.72;;;12.89;61.13
26823;BME280;14852;51.910;8.878;2023-03-26T07:56:47;98491.81;;;13.02;60.81
26823;BME280;14852;51.910;8.878;2023-03-26T08:00:15;98488.06;;;13.16;60.36
26823;BME280;14852;51.910;8.878;2023-03-26T08:06:36;98488.44;;;13.12;60.83
26823;BME280;14852;51.910;8.878;2023-03-26T08:09:50;98487.72;;;13.10;60.94
26823;BME280;14852;51.910;8.878;2023-03-26T08:15:32;98487.78;;;12.98;60.90
26823;BME280;14852;51.910;8.878;2023-03-26T08:18:38;98488.88;;;12.96;61.18
26823;BME280;14852;51.910;8.878;2023-03-26T08:21:12;98492.75;;;13.01;61.13
26823;BME280;14852;51.910;8.878;2023-03-26T08:27:22;98488.38;;;13.02;60.82
26823;BME280;14852;51.910;8.878;2023-03-26T08:30:20;98487.78;;;12.98;61.37
26823;BME280;14852;51.910;8.878;2023-03-26T08:33:17;98485.38;;;13.06;61.16
26823;BME280;14852;51.910;8.878;2023-03-26T08:35:48;98492.25;;;13.07;60.98
26823;BME280;14852;51.910;8.878;2023-03-26T08:38:18;98491.88;;;13.12;60.68
26823;BME280;14852;51.910;8.878;2023-03-26T08:44:02;98479.66;;;13.13;60.74
26823;BME280;14852;51.910;8.878;2023-03-26T08:47:18;98478.09;;;13.21;60.98
26823;BME280;14852;51.910;8.878;2023-03-26T08:56:43;98458.94;;;14.02;59.33
26823;BME280;14852;51.910;8.878;2023-03-26T09:05:56;98455.41;;;14.23;59.06
26823;BME280;14852;51.910;8.878;2023-03-26T09:20:53;98442.09;;;14.16;59.72
26823;BME280;14852;51.910;8.878;2023-03-26T09:23:47;98437.56;;;14.18;59.34
26823;BME280;14852;51.910;8.878;2023-03-26T09:26:49;98441.94;;;14.18;59.12
26823;BME280;14852;51.910;8.878;2023-03-26T09:29:44;98436.16;;;14.14;59.53
26823;BME280;14852;51.910;8.878;2023-03-26T09:38:49;98435.47;;;14.22;59.31
26823;BME280;14852;51.910;8.878;2023-03-26T09:44:38;98417.38;;;14.49;58.69
26823;BME280;14852;51.910;8.878;2023-03-26T09:50:34;98418.91;;;14.52;58.29
26823;BME280;14852;51.910;8.878;2023-03-26T09:57:06;98417.78;;;14.44;58.47
26823;BME280;14852;51.910;8.878;2023-03-26T10:05:22;98413.69;;;14.52;58.03
26823;BME280;14852;51.910;8.878;2023-03-26T10:11:02;98412.72;;;14.62;57.61
26823;BME280;14852;51.910;8.878;2023-03-26T10:13:41;98413.66;;;14.71;58.11
26823;BME280;14852;51.910;8.878;2023-03-26T10:16:24;98406.38;;;14.74;57.49
26823;BME280;14852;51.910;8.878;2023-03-26T10:36:39;98399.91;;;14.69;57.27
26823;BME280;14852;51.910;8.878;2023-03-26T10:42:39;98401.56;;;14.70;57.01
26823;BME280;14852;51.910;8.878;2023-03-26T10:51:34;98399.50;;;14.64;57.16
26823;BME280;14852;51.910;8.878;2023-03-26T10:54:50;98399.34;;;14.65;57.59
26823;BME280;14852;51.910;8.878;2023-03-26T10:57:44;98400.16;;;14.66;57.72
26823;BME280;14852;51.910;8.878;2023-03-26T11:00:26;98399.66;;;14.62;57.73
26823;BME280;14852;51.910;8.878;2023-03-26T11:03:25;98398.69;;;14.63;57.60
26823;BME280;14852;51.910;8.878;2023-03-26T11:06:22;98401.44;;;14.62;57.62
26823;BME280;14852;51.910;8.878;2023-03-26T11:09:18;98395.09;;;14.55;57.72
26823;BME280;14852;51.910;8.878;2023-03-26T11:12:08;98397.72;;;14.45;58.39
26823;BME280;14852;51.910;8.878;2023-03-26T11:20:16;98398.91;;;14.31;57.95
26823;BME280;14852;51.910;8.878;2023-03-26T11:26:16;98399.72;;;14.22;58.04
26823;BME280;14852;51.910;8.878;2023-03-26T11:31:57;98397.09;;;14.03;58.30
26823;BME280;14852;51.910;8.878;2023-03-26T11:34:36;98400.53;;;13.94;58.44
26823;BME280;14852;51.910;8.878;2023-03-26T11:37:11;98409.72;;;13.88;58.46
26823;BME280;14852;51.910;8.878;2023-03-26T11:39:49;98409.84;;;13.87;58.49
26823;BME280;14852;51.910;8.878;2023-03-26T11:42:22;98410.38;;;13.81;58.27
26823;BME280;14852;51.910;8.878;2023-03-26T11:45:17;98413.34;;;13.66;58.67
26823;BME280;14852;51.910;8.878;2023-03-26T11:47:49;98414.75;;;13.40;58.51
26823;BME280;14852;51.910;8.878;2023-03-26T11:50:27;98409.25;;;13.13;59.20
26823;BME280;14852;51.910;8.878;2023-03-26T11:53:13;98420.31;;;12.84;58.66
26823;BME280;14852;51.910;8.878;2023-03-26T11:56:01;98412.03;;;12.58;58.94
26823;BME280;14852;51.910;8.878;2023-03-26T12:01:13;98410.63;;;12.33;59.58
26823;BME280;14852;51.910;8.878;2023-03-26T12:03:40;98415.97;;;12.21;59.43
26823;BME280;14852;51.910;8.878;2023-03-26T12:06:28;98412.91;;;12.16;59.31
26823;BME280;14852;51.910;8.878;2023-03-26T12:08:54;98408.19;;;12.10;59.68
26823;BME280;14852;51.910;8.878;2023-03-26T12:11:29;98407.25;;;12.11;59.82
26823;BME280;14852;51.910;8.878;2023-03-26T12:14:02;98413.41;;;12.10;59.83
26823;BME280;14852;51.910;8.878;2023-03-26T12:16:28;98405.91;;;12.16;59.37
26823;BME280;14852;51.910;8.878;2023-03-26T12:19:16;98408.16;;;12.21;59.45
26823;BME280;14852;51.910;8.878;2023-03-26T12:21:48;98409.91;;;12.31;59.54
26823;BME280;14852;51.910;8.878;2023-03-26T12:24:30;98409.41;;;12.38;59.63
26823;BME280;14852;51.910;8.878;2023-03-26T12:27:25;98411.75;;;12.41;59.71
26823;BME280;14852;51.910;8.878;2023-03-26T12:30:08;98407.50;;;12.40;59.86
26823;BME280;14852;51.910;8.878;2023-03-26T12:32:40;98406.19;;;12.45;59.62
26823;BME280;14852;51.910;8.878;2023-03-26T12:35:14;98407.22;;;12.54;59.74
26823;BME280;14852;51.910;8.878;2023-03-26T12:37:45;98405.25;;;12.67;59.39
26823;BME280;14852;51.910;8.878;2023-03-26T12:40:32;98398.06;;;12.80;59.00
26823;BME280;14852;51.910;8.878;2023-03-26T12:43:19;98401.00;;;12.87;58.51
26823;BME280;14852;51.910;8.878;2023-03-26T12:45:50;98401.44;;;12.92;58.38
26823;BME280;14852;51.910;8.878;2023-03-26T12:48:18;98402.13;;;12.94;58.93
26823;BME280;14852;51.910;8.878;2023-03-26T12:50:57;98394.19;;;12.95;58.83
26823;BME280;14852;51.910;8.878;2023-03-26T12:56:54;98395.16;;;13.15;58.60
26823;BME280;14852;51.910;8.878;2023-03-26T13:02:47;98395.53;;;13.41;57.60
26823;BME280;14852;51.910;8.878;2023-03-26T13:08:44;98387.75;;;13.51;57.87
26823;BME280;14852;51.910;8.878;2023-03-26T13:17:22;98385.56;;;13.56;57.75
26823;BME280;14852;51.910;8.878;2023-03-26T13:20:27;98381.47;;;13.63;57.37
26823;BME280;14852;51.910;8.878;2023-03-26T13:29:13;98377.50;;;13.59;57.33
26823;BME280;14852;51.910;8.878;2023-03-26T13:32:21;98372.28;;;13.59;57.28
26823;BME280;14852;51.910;8.878;2023-03-26T13:41:02;98372.28;;;13.59;57.34
26823;BME280;14852;51.910;8.878;2023-03-26T13:46:45;98368.56;;;13.61;57.31
26823;BME280;14852;51.910;8.878;2023-03-26T13:49:26;98362.78;;;13.58;57.51
26823;BME280;14852;51.910;8.878;2023-03-26T13:54:45;98369.75;;;13.48;57.61
26823;BME280;14852;51.910;8.878;2023-03-26T13:57:42;98365.19;;;13.40;57.74
26823;BME280;14852;51.910;8.878;2023-03-26T14:00:14;98370.94;;;13.34;57.47
26823;BME280;14852;51.910;8.878;2023-03-26T14:05:50;98362.03;;;13.36;57.57
26823;BME280;14852;51.910;8.878;2023-03-26T14:08:41;98367.13;;;13.38;57.22
26823;BME280;14852;51.910;8.878;2023-03-26T14:11:15;98371.50;;;13.37;57.53
26823;BME280;14852;51.910;8.878;2023-03-26T14:13:55;98369.03;;;13.36;57.46
26823;BME280;14852;51.910;8.878;2023-03-26T14:16:33;98369.16;;;13.34;57.81
26823;BME280;14852;51.910;8.878;2023-03-26T14:22:48;98369.88;;;13.46;57.81
26823;BME280;14852;51.910;8.878;2023-03-26T14:37:27;98366.59;;;13.44;57.63
26823;BME280;14852;51.910;8.878;2023-03-26T14:49:18;98379.03;;;13.10;57.79
26823;BME280;14852;51.910;8.878;2023-03-26T14:54:38;98378.59;;;13.05;58.19
26823;BME280;14852;51.910;8.878;2023-03-26T15:01:27;98380.06;;;12.98;57.45
26823;BME280;14852;51.910;8.878;2023-03-26T15:13:59;98380.34;;;13.04;57.68
26823;BME280;14852;51.910;8.878;2023-03-26T15:25:47;98391.81;;;12.92;58.01
26823;BME280;14852;51.910;8.878;2023-03-26T15:47:52;98400.34;;;12.53;58.36
26823;BME280;14852;51.910;8.878;2023-03-26T15:54:08;98406.91;;;12.36;58.72
26823;BME280;14852;51.910;8.878;2023-03-26T15:57:07;98409.13;;;12.20;58.43
26823;BME280;14852;51.910;8.878;2023-03-26T16:00:22;98412.81;;;12.06;59.01
26823;BME280;14852;51.910;8.878;2023-03-26T16:03:18;98414.94;;;12.01;58.84
26823;BME280;14852;51.910;8.878;2023-03-26T16:06:21;98428.47;;;11.95;58.60
26823;BME280;14852;51.910;8.878;2023-03-26T16:11:56;98433.69;;;11.84;59.09
26823;BME280;14852;51.910;8.878;2023-03-26T16:14:45;98435.56;;;11.82;58.82
26823;BME280;14852;51.910;8.878;2023-03-26T16:17:21;98438.41;;;11.79;59.01
26823;BME280;14852;51.910;8.878;2023-03-26T16:22:56;98448.56;;;11.71;58.71
26823;BME280;14852;51.910;8.878;2023-03-26T16:25:31;98451.88;;;11.61;59.06
26823;BME280;14852;51.910;8.878;2023-03-26T16:30:35;98453.16;;;11.56;59.01
26823;BME280;14852;51.910;8.878;2023-03-26T16:33:15;98456.84;;;11.53;58.79
26823;BME280;14852;51.910;8.878;2023-03-26T16:36:02;98456.25;;;11.50;58.90
26823;BME280;14852;51.910;8.878;2023-03-26T16:38:47;98459.91;;;11.47;59.21
26823;BME280;14852;51.910;8.878;2023-03-26T16:41:23;98463.34;;;11.48;58.65
26823;BME280;14852;51.910;8.878;2023-03-26T16:58:49;98489.22;;;11.27;59.08
26823;BME280;14852;51.910;8.878;2023-03-26T17:01:49;98490.03;;;11.28;58.73
26823;BME280;14852;51.910;8.878;2023-03-26T17:04:23;98498.91;;;11.25;59.01
26823;BME280;14852;51.910;8.878;2023-03-26T17:07:42;98500.22;;;11.31;59.12
26823;BME280;14852;51.910;8.878;2023-03-26T17:10:27;98503.63;;;11.31;58.79
26823;BME280;14852;51.910;8.878;2023-03-26T17:14:02;98516.75;;;11.30;58.68
26823;BME280;14852;51.910;8.878;2023-03-26T17:16:18;98513.22;;;11.31;58.68
26823;BME280;14852;51.910;8.878;2023-03-26T17:19:01;98516.63;;;11.31;58.99
26823;BME280;14852;51.910;8.878;2023-03-26T17:22:04;98520.88;;;11.32;58.96
26823;BME280;14852;51.910;8.878;2023-03-26T17:35:45;98549.25;;;11.24;58.96
26823;BME280;14852;51.910;8.878;2023-03-26T17:40:56;98559.03;;;11.20;59.21
26823;BME280;14852;51.910;8.878;2023-03-26T17:43:48;98561.16;;;11.15;59.32
26823;BME280;14852;51.910;8.878;2023-03-26T17:46:39;98570.09;;;11.11;59.24
26823;BME280;14852;51.910;8.878;2023-03-26T17:57:22;98588.94;;;10.91;58.92
26823;BME280;14852;51.910;8.878;2023-03-26T17:59:56;98601.41;;;10.86;59.05
26823;BME280;14852;51.910;8.878;2023-03-26T18:02:36;98599.75;;;10.85;58.67
26823;BME280;14852;51.910;8.878;2023-03-26T18:05:13;98607.78;;;10.82;58.74
26823;BME280;14852;51.910;8.878;2023-03-26T18:08:24;98611.22;;;10.82;58.64
26823;BME280;14852;51.910;8.878;2023-03-26T18:17:03;98619.78;;;10.72;58.41
26823;BME280;14852;51.910;8.878;2023-03-26T18:19:51;98631.84;;;10.73;58.17
26823;BME280;14852;51.910;8.878;2023-03-26T18:22:27;98635.47;;;10.70;58.40
26823;BME280;14852;51.910;8.878;2023-03-26T18:24:59;98639.22;;;10.66;58.32
26823;BME280;14852;51.910;8.878;2023-03-26T18:27:34;98641.09;;;10.64;58.38
26823;BME280;14852;51.910;8.878;2023-03-26T18:30:16;98647.31;;;10.62;58.48
26823;BME280;14852;51.910;8.878;2023-03-26T18:33:00;98645.88;;;10.58;58.29
26823;BME280;14852;51.910;8.878;2023-03-26T18:35:44;98650.66;;;10.51;58.20
26823;BME280;14852;51.910;8.878;2023-03-26T18:38:20;98648.50;;;10.45;58.22
26823;BME280;14852;51.910;8.878;2023-03-26T18:40:49;98661.09;;;10.38;58.14
26823;BME280;14852;51.910;8.878;2023-03-26T18:43:18;98662.44;;;10.31;58.23
26823;BME280;14852;51.910;8.878;2023-03-26T18:45:49;98670.75;;;10.24;58.47
26823;BME280;14852;51.910;8.878;2023-03-26T18:48:20;98671.06;;;10.19;58.17
26823;BME280;14852;51.910;8.878;2023-03-26T18:51:01;98681.00;;;10.12;58.55
26823;BME280;14852;51.910;8.878;2023-03-26T18:53:34;98683.06;;;10.07;58.27
26823;BME280;14852;51.910;8.878;2023-03-26T18:56:19;98682.44;;;10.04;58.48
26823;BME280;14852;51.910;8.878;2023-03-26T18:58:52;98690.09;;;9.93;58.09
26823;BME280;14852;51.910;8.878;2023-03-26T19:01:21;98701.84;;;9.86;58.08